createdAt,value
2018-08-28T00:01:45.668Z,91987.68
2018-08-28T00:04:21.429Z,91992.77
2018-08-28T00:06:57.320Z,91991.95
2018-08-28T00:09:33.190Z,91987.70
2018-08-28T00:12:09.012Z,91983.52
2018-08-28T00:14:44.929Z,91975.06
2018-08-28T00:17:20.795Z,91978.00
2018-08-28T00:19:56.607Z,91969.70
2018-08-28T00:22:35.705Z,91970.33
2018-08-28T00:25:11.496Z,91967.30
2018-08-28T00:27:47.255Z,91968.05
2018-08-28T00:30:23.060Z,91975.32
2018-08-28T00:32:58.956Z,91970.01
2018-08-28T00:35:34.704Z,91964.95
2018-08-28T00:38:10.558Z,91970.01
2018-08-28T00:40:46.458Z,91974.23
2018-08-28T00:43:25.186Z,91969.73
2018-08-28T00:46:01.145Z,91965.61
2018-08-28T00:48:36.901Z,91970.77
2018-08-28T00:51:12.655Z,91973.85
2018-08-28T00:53:51.019Z,91974.77
2018-08-28T00:56:26.917Z,91967.02
2018-08-28T00:59:02.539Z,91961.22
2018-08-28T01:01:38.477Z,91958.02
2018-08-28T01:04:14.231Z,91951.36
2018-08-28T01:06:50.385Z,91951.14
2018-08-28T01:09:26.070Z,91956.94
2018-08-28T01:12:02.394Z,91951.52
2018-08-28T01:14:38.089Z,91949.20
2018-08-28T01:17:14.120Z,91955.64
2018-08-28T01:19:49.833Z,91957.11
2018-08-28T01:22:25.586Z,91955.91
2018-08-28T01:25:01.381Z,91954.58
2018-08-28T01:27:37.234Z,91955.17
2018-08-28T01:30:12.955Z,91965.09
2018-08-28T01:32:48.844Z,91952.51
2018-08-28T01:35:25.002Z,91961.71
2018-08-28T01:38:00.825Z,91961.01
2018-08-28T01:40:41.408Z,91966.27
2018-08-28T01:43:23.203Z,91968.02
2018-08-28T01:45:58.823Z,91968.07
2018-08-28T01:48:34.728Z,91975.87
2018-08-28T01:51:10.593Z,91966.56
2018-08-28T01:53:46.398Z,91970.72
2018-08-28T01:56:22.263Z,91988.67
2018-08-28T01:58:58.203Z,91987.86
2018-08-28T02:01:34.221Z,91979.39
2018-08-28T02:04:10.109Z,91976.36
2018-08-28T02:06:45.704Z,91982.45
2018-08-28T02:09:21.570Z,91982.02
2018-08-28T02:11:57.330Z,91976.67
2018-08-28T02:14:33.275Z,91978.81
2018-08-28T02:17:09.018Z,91984.96
2018-08-28T02:19:45.044Z,91979.94
2018-08-28T02:22:20.742Z,91981.86
2018-08-28T02:24:56.529Z,91982.77
2018-08-28T02:27:32.294Z,91992.40
2018-08-28T02:30:08.240Z,91985.97
2018-08-28T02:32:44.012Z,91987.19
2018-08-28T02:35:19.940Z,91981.21
2018-08-28T02:37:55.738Z,91997.59
2018-08-28T02:40:31.629Z,91998.19
2018-08-28T02:43:07.645Z,92004.59
2018-08-28T02:45:43.491Z,92006.11
2018-08-28T02:48:19.147Z,92004.33
2018-08-28T02:50:55.033Z,92004.48
2018-08-28T02:53:30.783Z,91999.23
2018-08-28T02:56:06.691Z,91994.03
2018-08-28T02:58:42.725Z,91996.89
2018-08-28T03:01:18.810Z,91995.29
2018-08-28T03:03:54.666Z,91997.48
2018-08-28T03:06:30.547Z,91997.43
2018-08-28T03:09:07.469Z,91999.97
2018-08-28T03:11:43.187Z,91999.02
2018-08-28T03:14:19.155Z,91997.26
2018-08-28T03:16:55.096Z,92002.45
2018-08-28T03:19:30.858Z,92009.33
2018-08-28T03:22:06.812Z,92016.26
2018-08-28T03:24:42.672Z,92013.98
2018-08-28T03:27:18.578Z,92012.52
2018-08-28T03:29:54.374Z,92011.51
2018-08-28T03:32:30.657Z,92018.53
2018-08-28T03:35:06.583Z,92025.30
2018-08-28T03:37:42.875Z,92024.64
2018-08-28T03:40:18.642Z,92029.69
2018-08-28T03:42:54.558Z,92025.09
2018-08-28T03:45:30.343Z,92022.20
2018-08-28T03:48:06.513Z,92023.55
2018-08-28T03:50:42.251Z,92029.53
2018-08-28T03:53:18.101Z,92030.50
2018-08-28T03:55:54.007Z,92037.27
2018-08-28T03:58:29.898Z,92038.42
2018-08-28T04:01:05.785Z,92039.13
2018-08-28T04:03:41.851Z,92042.56
2018-08-28T04:06:17.844Z,92042.77
2018-08-28T04:08:53.617Z,92044.40
2018-08-28T04:11:29.385Z,92042.28
2018-08-28T04:14:05.561Z,92047.39
2018-08-28T04:16:41.439Z,92050.91
2018-08-28T04:19:17.150Z,92048.36
2018-08-28T04:21:53.055Z,92043.81
2018-08-28T04:24:28.971Z,92051.07
2018-08-28T04:27:04.675Z,92047.59
2018-08-28T04:29:40.473Z,92051.56
2018-08-28T04:32:16.261Z,92053.78
2018-08-28T04:34:52.132Z,92050.86
2018-08-28T04:37:27.953Z,92053.35
2018-08-28T04:40:03.966Z,92047.59
2018-08-28T04:42:39.572Z,92058.93
2018-08-28T04:45:15.494Z,92058.05
2018-08-28T04:47:51.328Z,92057.13
2018-08-28T04:50:27.280Z,92059.74
2018-08-28T04:53:03.047Z,92059.95
2018-08-28T04:55:38.700Z,92071.02
2018-08-28T04:58:14.455Z,92066.19
2018-08-28T05:00:50.420Z,92071.62
2018-08-28T05:03:26.464Z,92071.86
2018-08-28T05:06:02.400Z,92072.08
2018-08-28T05:08:38.147Z,92081.15
2018-08-28T05:11:14.090Z,92078.45
2018-08-28T05:13:50.345Z,92075.83
2018-08-28T05:16:26.258Z,92078.34
2018-08-28T05:19:02.025Z,92076.43
2018-08-28T05:21:38.357Z,92078.07
2018-08-28T05:24:14.224Z,92077.83
2018-08-28T05:26:50.132Z,92070.88
2018-08-28T05:29:26.713Z,92073.45
2018-08-28T05:32:03.038Z,92073.95
2018-08-28T05:34:38.922Z,92078.02
2018-08-28T05:37:14.895Z,92074.70
2018-08-28T05:39:50.609Z,92072.08
2018-08-28T05:42:26.475Z,92072.14
2018-08-28T05:45:02.344Z,92066.82
2018-08-28T05:47:38.251Z,92076.83
2018-08-28T05:50:14.106Z,92082.72
2018-08-28T05:52:50.016Z,92078.47
2018-08-28T05:55:25.990Z,92085.89
2018-08-28T05:58:02.094Z,92087.61
2018-08-28T06:00:37.836Z,92085.78
2018-08-28T06:03:13.703Z,92089.70
2018-08-28T06:05:49.661Z,92099.36
2018-08-28T06:08:25.461Z,92094.31
2018-08-28T06:11:01.756Z,92094.48
2018-08-28T06:13:37.701Z,92095.89
2018-08-28T06:16:13.337Z,92090.75
2018-08-28T06:18:49.099Z,92098.19
2018-08-28T06:21:24.978Z,92097.97
2018-08-28T06:24:00.738Z,92093.14
2018-08-28T06:26:36.598Z,92096.22
2018-08-28T06:29:16.594Z,92097.86
2018-08-28T06:31:52.454Z,92104.34
2018-08-28T06:34:28.296Z,92106.42
2018-08-28T06:37:04.326Z,92106.88
2018-08-28T06:39:40.078Z,92095.52
2018-08-28T06:42:10.870Z,92100.51
2018-08-28T06:44:41.730Z,92094.13
2018-08-28T06:47:12.923Z,92099.64
2018-08-28T06:49:43.748Z,92102.08
2018-08-28T06:52:14.497Z,92095.02
2018-08-28T06:54:45.395Z,92099.92
2018-08-28T06:57:16.693Z,92107.84
2018-08-28T06:59:47.650Z,92099.06
2018-08-28T07:02:18.455Z,92101.02
2018-08-28T07:04:49.301Z,92097.58
2018-08-28T07:07:20.244Z,92102.22
2018-08-28T07:09:51.105Z,92098.30
2018-08-28T07:12:21.934Z,92105.00
2018-08-28T07:14:52.754Z,92103.07
2018-08-28T07:17:23.537Z,92104.77
2018-08-28T07:19:54.405Z,92104.87
2018-08-28T07:22:26.051Z,92106.48
2018-08-28T07:24:57.471Z,92115.42
2018-08-28T07:27:28.250Z,92113.88
2018-08-28T07:29:59.050Z,92119.99
2018-08-28T07:32:29.831Z,92127.19
2018-08-28T07:35:00.770Z,92115.92
2018-08-28T07:37:31.651Z,92120.56
2018-08-28T07:40:03.339Z,92124.80
2018-08-28T07:42:34.136Z,92120.66
2018-08-28T07:45:05.456Z,92124.31
2018-08-28T07:47:36.259Z,92125.75
2018-08-28T07:50:07.085Z,92132.23
2018-08-28T07:52:37.863Z,92128.81
2018-08-28T07:55:08.782Z,92128.17
2018-08-28T07:57:39.583Z,92130.94
2018-08-28T08:00:10.444Z,92129.89
2018-08-28T08:02:41.234Z,92132.59
2018-08-28T08:05:12.065Z,92129.79
2018-08-28T08:07:42.952Z,92140.14
2018-08-28T08:10:14.303Z,92138.52
2018-08-28T08:12:45.075Z,92136.97
2018-08-28T08:15:16.318Z,92135.62
2018-08-28T08:17:47.101Z,92134.84
2018-08-28T08:20:17.954Z,92133.00
2018-08-28T08:22:48.745Z,92130.16
2018-08-28T08:25:19.725Z,92131.84
2018-08-28T08:27:50.551Z,92126.89
2018-08-28T08:30:21.617Z,92131.33
2018-08-28T08:32:52.517Z,92131.44
2018-08-28T08:35:23.418Z,92124.23
2018-08-28T08:37:54.338Z,92127.06
2018-08-28T08:40:25.183Z,92124.84
2018-08-28T08:42:56.747Z,92125.55
2018-08-28T08:45:27.551Z,92125.52
2018-08-28T08:47:58.313Z,92134.16
2018-08-28T08:50:29.753Z,92131.39
2018-08-28T08:53:00.523Z,92133.53
2018-08-28T08:55:31.362Z,92133.63
2018-08-28T08:58:02.139Z,92130.52
2018-08-28T09:00:33.386Z,92130.05
2018-08-28T09:03:04.183Z,92127.63
2018-08-28T09:05:34.990Z,92130.52
2018-08-28T09:08:05.934Z,92132.31
2018-08-28T09:10:37.108Z,92132.17
2018-08-28T09:13:07.878Z,92126.82
2018-08-28T09:15:38.741Z,92124.41
2018-08-28T09:18:10.185Z,92124.33
2018-08-28T09:20:41.037Z,92125.80
2018-08-28T09:23:11.826Z,92132.98
2018-08-28T09:25:42.681Z,92122.92
2018-08-28T09:28:13.549Z,92120.03
2018-08-28T09:30:44.383Z,92126.98
2018-08-28T09:33:15.174Z,92131.78
2018-08-28T09:35:46.000Z,92130.92
2018-08-28T09:38:16.833Z,92134.94
2018-08-28T09:40:48.104Z,92137.03
2018-08-28T09:43:18.893Z,92135.63
2018-08-28T09:45:49.705Z,92138.38
2018-08-28T09:48:20.667Z,92134.09
2018-08-28T09:50:51.752Z,92137.34
2018-08-28T09:53:22.551Z,92138.13
2018-08-28T09:55:53.397Z,92138.08
2018-08-28T09:58:24.178Z,92139.27
2018-08-28T10:01:00.000Z,92135.71
2018-08-28T10:03:30.768Z,92140.07
2018-08-28T10:06:01.560Z,92142.76
2018-08-28T10:08:32.393Z,92143.73
2018-08-28T10:11:03.311Z,92138.52
2018-08-28T10:13:34.261Z,92143.77
2018-08-28T10:16:05.087Z,92138.75
2018-08-28T10:18:35.860Z,92140.77
2018-08-28T10:21:06.670Z,92137.88
2018-08-28T10:23:37.515Z,92134.24
2018-08-28T10:26:08.376Z,92133.63
2018-08-28T10:28:39.134Z,92132.96
2018-08-28T10:31:09.940Z,92134.63
2018-08-28T10:33:40.689Z,92135.97
2018-08-28T10:36:11.491Z,92126.03
2018-08-28T10:38:42.311Z,92134.80
2018-08-28T10:41:13.621Z,92134.78
2018-08-28T10:43:44.383Z,92133.67
2018-08-28T10:46:15.319Z,92134.33
2018-08-28T10:48:46.722Z,92136.33
2018-08-28T10:51:18.273Z,92134.55
2018-08-28T10:53:49.061Z,92139.98
2018-08-28T10:56:19.973Z,92144.49
2018-08-28T10:58:51.233Z,92144.38
2018-08-28T11:01:22.119Z,92146.05
2018-08-28T11:03:52.914Z,92144.30
2018-08-28T11:06:23.744Z,92144.03
2018-08-28T11:08:54.614Z,92139.81
2018-08-28T11:11:25.495Z,92143.90
2018-08-28T11:13:56.309Z,92136.59
2018-08-28T11:16:27.125Z,92132.36
2018-08-28T11:18:57.917Z,92137.91
2018-08-28T11:21:28.868Z,92144.49
2018-08-28T11:24:02.473Z,92138.89
2018-08-28T11:26:33.391Z,92125.84
2018-08-28T11:29:04.209Z,92131.59
2018-08-28T11:31:35.040Z,92131.09
2018-08-28T11:34:08.346Z,92129.47
2018-08-28T11:36:40.613Z,92128.44
2018-08-28T11:39:11.414Z,92125.67
2018-08-28T11:41:42.297Z,92124.98
2018-08-28T11:44:13.085Z,92126.38
2018-08-28T11:46:43.961Z,92120.17
2018-08-28T11:49:14.761Z,92115.55
2018-08-28T11:51:45.677Z,92116.27
2018-08-28T11:54:16.469Z,92112.06
2018-08-28T11:56:47.361Z,92118.28
2018-08-28T11:59:18.153Z,92119.85
2018-08-28T12:01:48.995Z,92121.03
2018-08-28T12:04:19.987Z,92120.34
2018-08-28T12:06:50.942Z,92122.17
2018-08-28T12:09:21.924Z,92119.13
2018-08-28T12:11:52.768Z,92119.75
2018-08-28T12:14:23.560Z,92121.73
2018-08-28T12:16:54.412Z,92126.14
2018-08-28T12:19:25.218Z,92117.48
2018-08-28T12:21:56.030Z,92109.11
2018-08-28T12:24:26.797Z,92113.02
2018-08-28T12:26:57.702Z,92117.03
2018-08-28T12:29:28.515Z,92104.86
2018-08-28T12:31:59.314Z,92109.11
2018-08-28T12:34:30.088Z,92104.92
2018-08-28T12:37:00.943Z,92105.06
2018-08-28T12:39:31.870Z,92100.55
2018-08-28T12:42:02.940Z,92109.45
2018-08-28T12:44:34.139Z,92108.03
2018-08-28T12:47:05.030Z,92107.27
2018-08-28T12:49:35.801Z,92096.46
2018-08-28T12:52:06.682Z,92101.23
2018-08-28T12:54:37.514Z,92104.50
2018-08-28T12:57:08.778Z,92104.55
2018-08-28T12:59:39.631Z,92108.41
2018-08-28T13:02:10.477Z,92113.92
2018-08-28T13:04:41.444Z,92117.00
2018-08-28T13:07:12.325Z,92106.63
2018-08-28T13:09:43.352Z,92104.03
2018-08-28T13:12:14.246Z,92096.48
2018-08-28T13:14:45.167Z,92103.53
2018-08-28T13:17:16.119Z,92105.02
2018-08-28T13:19:47.021Z,92103.86
2018-08-28T13:22:17.863Z,92097.09
2018-08-28T13:24:48.780Z,92102.84
2018-08-28T13:27:19.644Z,92093.77
2018-08-28T13:29:50.419Z,92098.55
2018-08-28T13:32:21.237Z,92105.45
2018-08-28T13:34:52.005Z,92096.80
2018-08-28T13:37:22.812Z,92097.69
2018-08-28T13:39:53.643Z,92100.78
2018-08-28T13:42:24.502Z,92099.09
2018-08-28T13:44:55.321Z,92096.25
2018-08-28T13:47:26.126Z,92097.75
2018-08-28T13:49:56.903Z,92088.97
2018-08-28T13:52:27.689Z,92101.34
2018-08-28T13:54:58.452Z,92099.05
2018-08-28T13:57:29.325Z,92102.44
2018-08-28T14:00:00.106Z,92100.11
2018-08-28T14:02:30.948Z,92099.02
2018-08-28T14:05:01.718Z,92107.36
2018-08-28T14:07:32.547Z,92107.55
2018-08-28T14:10:03.520Z,92102.24
2018-08-28T14:12:34.436Z,92100.45
2018-08-28T14:15:05.473Z,92096.55
2018-08-28T14:17:37.388Z,92104.11
2018-08-28T14:20:08.243Z,92097.31
2018-08-28T14:22:39.108Z,92101.34
2018-08-28T14:25:10.112Z,92101.45
2018-08-28T14:27:41.101Z,92090.37
2018-08-28T14:30:11.894Z,92092.94
2018-08-28T14:32:45.779Z,92094.19
2018-08-28T14:35:17.051Z,92091.41
2018-08-28T14:37:47.853Z,92090.29
2018-08-28T14:40:18.636Z,92095.95
2018-08-28T14:42:49.457Z,92088.16
2018-08-28T14:45:20.489Z,92095.65
2018-08-28T14:48:04.882Z,92091.20
2018-08-28T14:50:36.462Z,92086.59
2018-08-28T14:53:08.021Z,92093.37
2018-08-28T14:55:39.418Z,92095.48
2018-08-28T14:58:10.265Z,92098.63
2018-08-28T15:00:41.296Z,92098.00
2018-08-28T15:03:12.199Z,92104.22
2018-08-28T15:05:43.418Z,92103.23
2018-08-28T15:08:14.356Z,92098.20
2018-08-28T15:10:45.308Z,92099.36
2018-08-28T15:13:16.169Z,92101.00
2018-08-28T15:15:46.948Z,92105.47
2018-08-28T15:18:17.806Z,92110.31
2018-08-28T15:20:48.579Z,92104.05
2018-08-28T15:23:19.408Z,92100.42
2018-08-28T15:25:50.209Z,92099.86
2018-08-28T15:28:21.018Z,92103.95
2018-08-28T15:30:51.807Z,92100.50
2018-08-28T15:33:22.642Z,92101.67
2018-08-28T15:35:53.424Z,92102.81
2018-08-28T15:38:24.297Z,92097.19
2018-08-28T15:40:55.257Z,92099.05
2018-08-28T15:43:26.100Z,92099.80
2018-08-28T15:45:56.896Z,92103.28
2018-08-28T15:48:27.775Z,92101.41
2018-08-28T15:50:58.570Z,92104.98
2018-08-28T15:53:29.389Z,92101.36
2018-08-28T15:56:00.182Z,92102.70
2018-08-28T15:58:30.982Z,92098.66
2018-08-28T16:01:01.810Z,92096.34
2018-08-28T16:03:32.695Z,92096.64
2018-08-28T16:06:03.479Z,92096.59
2018-08-28T16:08:34.295Z,92095.28
2018-08-28T16:11:05.192Z,92099.28
2018-08-28T16:13:36.021Z,92098.42
2018-08-28T16:16:07.284Z,92096.34
2018-08-28T16:18:38.464Z,92093.51
2018-08-28T16:21:09.278Z,92096.86
2018-08-28T16:23:42.701Z,92098.70
2018-08-28T16:26:13.663Z,92106.86
2018-08-28T16:28:44.500Z,92107.53
2018-08-28T16:31:16.246Z,92102.06
2018-08-28T16:33:47.142Z,92110.72
2018-08-28T16:36:18.013Z,92116.98
2018-08-28T16:38:48.958Z,92112.17
2018-08-28T16:41:19.765Z,92114.15
2018-08-28T16:43:50.605Z,92116.34
2018-08-28T16:46:21.387Z,92117.84
2018-08-28T16:48:52.234Z,92118.55
2018-08-28T16:51:23.021Z,92119.34
2018-08-28T16:53:53.820Z,92125.33
2018-08-28T16:56:24.612Z,92131.22
2018-08-28T16:58:55.426Z,92133.16
2018-08-28T17:01:26.247Z,92136.11
2018-08-28T17:03:57.344Z,92139.11
2018-08-28T17:06:28.168Z,92150.75
2018-08-28T17:08:59.045Z,92142.79
2018-08-28T17:11:29.965Z,92149.11
2018-08-28T17:14:00.788Z,92146.36
2018-08-28T17:16:31.589Z,92151.98
2018-08-28T17:19:02.451Z,92152.05
2018-08-28T17:21:33.261Z,92158.27
2018-08-28T17:24:04.188Z,92161.14
2018-08-28T17:26:35.062Z,92156.08
2018-08-28T17:29:05.977Z,92157.41
2018-08-28T17:31:36.893Z,92164.11
2018-08-28T17:34:07.935Z,92164.78
2018-08-28T17:36:38.732Z,92165.75
2018-08-28T17:39:09.820Z,92169.41
2018-08-28T17:41:40.607Z,92175.59
2018-08-28T17:44:11.516Z,92177.23
2018-08-28T17:46:42.321Z,92173.06
2018-08-28T17:49:13.236Z,92174.92
2018-08-28T17:51:44.216Z,92178.56
2018-08-28T17:54:15.074Z,92182.41
2018-08-28T17:56:46.203Z,92193.09
2018-08-28T17:59:17.047Z,92193.50
2018-08-28T18:01:47.909Z,92196.00
2018-08-28T18:04:18.882Z,92200.26
2018-08-28T18:06:50.108Z,92203.05
2018-08-28T18:09:21.003Z,92203.56
2018-08-28T18:11:52.061Z,92215.52
2018-08-28T18:14:22.868Z,92222.95
2018-08-28T18:16:53.669Z,92220.61
2018-08-28T18:19:24.548Z,92217.31
2018-08-28T18:21:55.400Z,92221.03
2018-08-28T18:24:26.351Z,92225.18
2018-08-28T18:26:57.215Z,92226.55
2018-08-28T18:29:28.199Z,92225.66
2018-08-28T18:31:59.001Z,92226.49
2018-08-28T18:34:29.855Z,92222.35
2018-08-28T18:37:00.849Z,92216.80
2018-08-28T18:39:31.700Z,92227.70
2018-08-28T18:42:02.819Z,92227.28
2018-08-28T18:44:33.721Z,92235.27
2018-08-28T18:47:04.611Z,92238.22
2018-08-28T18:49:35.678Z,92234.03
2018-08-28T18:52:06.570Z,92230.69
2018-08-28T18:54:37.446Z,92233.16
2018-08-28T18:57:08.285Z,92239.27
2018-08-28T18:59:39.398Z,92248.80
2018-08-28T19:02:10.660Z,92245.62
2018-08-28T19:04:47.440Z,92251.08
2018-08-28T19:07:18.246Z,92252.97
2018-08-28T19:09:49.098Z,92244.27
2018-08-28T19:12:19.881Z,92249.58
2018-08-28T19:14:50.748Z,92251.38
2018-08-28T19:17:21.526Z,92255.95
2018-08-28T19:19:52.411Z,92258.89
2018-08-28T19:22:23.294Z,92256.83
2018-08-28T19:24:54.181Z,92257.09
2018-08-28T19:27:24.967Z,92250.73
2018-08-28T19:29:55.819Z,92255.54
2018-08-28T19:32:26.597Z,92253.19
2018-08-28T19:34:57.459Z,92257.44
2018-08-28T19:37:28.301Z,92255.63
2018-08-28T19:39:59.706Z,92257.30
2018-08-28T19:42:30.497Z,92261.74
2018-08-28T19:45:01.516Z,92266.78
2018-08-28T19:47:32.296Z,92267.72
2018-08-28T19:50:03.196Z,92268.33
2018-08-28T19:52:33.688Z,92268.19
2018-08-28T19:55:04.761Z,92268.48
2018-08-28T19:57:36.050Z,92270.21
2018-08-28T20:00:12.720Z,92268.30
2018-08-28T20:02:49.499Z,92271.20
2018-08-28T20:05:25.326Z,92263.80
2018-08-28T20:08:01.998Z,92273.11
2018-08-28T20:10:38.656Z,92276.48
2018-08-28T20:13:14.403Z,92269.12
2018-08-28T20:15:50.315Z,92272.58
2018-08-28T20:18:26.092Z,92274.37
2018-08-28T20:21:01.846Z,92269.53
2018-08-28T20:23:37.858Z,92274.59
2018-08-28T20:26:14.317Z,92271.77
2018-08-28T20:28:50.228Z,92266.77
2018-08-28T20:31:26.026Z,92276.25
2018-08-28T20:34:01.821Z,92280.00
2018-08-28T20:36:37.710Z,92284.33
2018-08-28T20:39:13.768Z,92289.30
2018-08-28T20:41:49.502Z,92302.11
2018-08-28T20:44:25.931Z,92304.23
2018-08-28T20:47:07.006Z,92311.55
2018-08-28T20:49:42.787Z,92323.74
2018-08-28T20:52:18.765Z,92310.73
2018-08-28T20:54:54.521Z,92308.69
2018-08-28T20:57:30.488Z,92310.97
2018-08-28T21:00:06.932Z,92308.20
2018-08-28T21:02:42.773Z,92312.23
2018-08-28T21:05:22.765Z,92311.37
2018-08-28T21:08:00.248Z,92302.94
2018-08-28T21:10:36.696Z,92307.77
2018-08-28T21:13:12.670Z,92306.03
2018-08-28T21:15:48.706Z,92304.22
2018-08-28T21:18:27.384Z,92302.39
2018-08-28T21:21:03.232Z,92306.21
2018-08-28T21:23:39.021Z,92310.74
2018-08-28T21:26:15.351Z,92315.69
2018-08-28T21:28:51.072Z,92310.48
2018-08-28T21:31:27.059Z,92309.95
2018-08-28T21:34:02.984Z,92316.36
2018-08-28T21:36:39.222Z,92311.48
2018-08-28T21:39:20.059Z,92315.67
2018-08-28T21:41:56.932Z,92315.20
2018-08-28T21:44:33.004Z,92314.91
2018-08-28T21:47:08.955Z,92320.44
2018-08-28T21:49:44.908Z,92321.20
2018-08-28T21:52:20.901Z,92324.28
2018-08-28T21:54:56.653Z,92327.60
2018-08-28T21:57:32.380Z,92324.37
2018-08-28T22:00:08.619Z,92325.25
2018-08-28T22:02:44.412Z,92330.73
2018-08-28T22:05:24.410Z,92329.54
2018-08-28T22:08:00.765Z,92329.69
2018-08-28T22:10:36.606Z,92336.71
2018-08-28T22:13:12.370Z,92331.85
2018-08-28T22:15:50.927Z,92334.22
2018-08-28T22:18:30.199Z,92332.68
2018-08-28T22:21:06.341Z,92332.09
2018-08-28T22:23:43.026Z,92331.69
2018-08-28T22:26:19.005Z,92335.20
2018-08-28T22:28:57.402Z,92342.94
2018-08-28T22:31:33.274Z,92333.42
2018-08-28T22:34:09.173Z,92335.88
2018-08-28T22:36:44.894Z,92341.65
2018-08-28T22:39:20.964Z,92336.53
2018-08-28T22:41:56.743Z,92336.66
2018-08-28T22:44:32.761Z,92330.17
2018-08-28T22:47:08.837Z,92334.23
2018-08-28T22:49:44.653Z,92337.59
2018-08-28T22:52:21.095Z,92335.17
2018-08-28T22:54:56.939Z,92343.58
2018-08-28T22:57:32.943Z,92337.64
2018-08-28T23:00:08.569Z,92333.67
2018-08-28T23:02:44.234Z,92332.13
2018-08-28T23:05:20.147Z,92334.34
2018-08-28T23:07:55.952Z,92336.87
2018-08-28T23:10:32.018Z,92335.30
2018-08-28T23:13:07.776Z,92334.74
2018-08-28T23:15:43.516Z,92331.05
2018-08-28T23:18:19.547Z,92328.00
2018-08-28T23:20:55.757Z,92332.44
2018-08-28T23:23:31.556Z,92331.73
2018-08-28T23:26:07.355Z,92330.45
2018-08-28T23:28:43.211Z,92331.28
2018-08-28T23:31:18.996Z,92329.99
2018-08-28T23:33:54.918Z,92335.91
2018-08-28T23:36:30.689Z,92338.46
2018-08-28T23:39:07.417Z,92334.89
2018-08-28T23:41:43.162Z,92340.06
2018-08-28T23:44:18.951Z,92343.48
2018-08-28T23:46:54.805Z,92343.02
2018-08-28T23:49:30.499Z,92344.44
2018-08-28T23:52:06.483Z,92347.83
2018-08-28T23:54:42.285Z,92347.20
2018-08-28T23:57:18.549Z,92352.39
2018-08-28T23:59:54.391Z,92351.83
